createdAt,value
2019-04-19T00:00:37.106Z,43.70
2019-04-19T00:03:06.678Z,43.90
2019-04-19T00:05:52.477Z,43.80
2019-04-19T00:08:37.301Z,44.00
2019-04-19T00:11:06.522Z,44.10
2019-04-19T00:13:24.059Z,44.10
2019-04-19T00:15:53.959Z,44.30
2019-04-19T00:18:24.563Z,44.30
2019-04-19T00:21:13.676Z,44.50
2019-04-19T00:23:33.131Z,44.60
2019-04-19T00:25:56.144Z,44.60
2019-04-19T00:28:35.430Z,44.80
2019-04-19T00:31:13.397Z,44.80
2019-04-19T00:33:34.458Z,44.90
2019-04-19T00:36:02.591Z,44.90
2019-04-19T00:38:45.579Z,45.00
2019-04-19T00:41:35.836Z,45.00
2019-04-19T00:44:14.909Z,45.00
2019-04-19T00:46:53.887Z,45.00
2019-04-19T00:49:13.369Z,45.00
2019-04-19T00:51:51.641Z,45.00
2019-04-19T00:54:13.021Z,45.10
2019-04-19T00:56:46.710Z,45.20
2019-04-19T00:59:10.097Z,45.30
2019-04-19T01:01:37.514Z,45.40
2019-04-19T01:04:13.724Z,45.50
2019-04-19T01:06:43.883Z,45.60
2019-04-19T01:09:27.895Z,45.60
2019-04-19T01:11:55.639Z,45.70
2019-04-19T01:14:26.976Z,45.70
2019-04-19T01:16:54.891Z,45.80
2019-04-19T01:19:17.540Z,45.80
2019-04-19T01:21:44.963Z,45.90
2019-04-19T01:24:17.971Z,46.00
2019-04-19T01:26:48.702Z,46.00
2019-04-19T01:29:19.390Z,46.10
2019-04-19T01:31:54.526Z,46.30
2019-04-19T01:34:24.879Z,46.30
2019-04-19T01:36:52.681Z,46.40
2019-04-19T01:39:36.545Z,46.50
2019-04-19T01:42:04.523Z,46.60
2019-04-19T01:44:47.461Z,46.80
2019-04-19T01:47:34.627Z,46.90
2019-04-19T01:50:13.236Z,47.00
2019-04-19T01:52:55.893Z,47.10
2019-04-19T01:55:10.057Z,47.10
2019-04-19T01:57:32.450Z,47.30
2019-04-19T02:00:03.875Z,47.30
2019-04-19T02:02:37.845Z,47.30
2019-04-19T02:05:09.775Z,47.40
2019-04-19T02:07:36.199Z,47.60
2019-04-19T02:10:22.800Z,47.80
2019-04-19T02:12:52.732Z,47.80
2019-04-19T02:15:24.637Z,47.90
2019-04-19T02:17:48.321Z,48.00
2019-04-19T02:20:17.027Z,48.10
2019-04-19T02:22:48.574Z,48.20
2019-04-19T02:25:21.808Z,48.20
2019-04-19T02:27:50.448Z,48.20
2019-04-19T02:30:31.371Z,48.30
2019-04-19T02:33:15.354Z,48.40
2019-04-19T02:35:51.208Z,48.50
2019-04-19T02:38:24.944Z,48.50
2019-04-19T02:43:32.088Z,48.80
2019-04-19T02:46:09.848Z,48.80
2019-04-19T02:48:29.575Z,48.90
2019-04-19T02:53:30.062Z,49.10
2019-04-19T02:56:05.296Z,49.10
2019-04-19T02:58:33.853Z,49.20
2019-04-19T03:01:18.693Z,49.40
2019-04-19T03:03:39.775Z,50.20
2019-04-19T03:06:08.985Z,50.20
2019-04-19T03:08:22.900Z,49.40
2019-04-19T03:11:03.148Z,49.20
2019-04-19T03:13:41.248Z,49.30
2019-04-19T03:16:11.781Z,49.00
2019-04-19T03:18:42.378Z,48.90
2019-04-19T03:21:08.351Z,48.80
2019-04-19T03:23:41.352Z,48.80
2019-04-19T03:26:17.129Z,48.70
2019-04-19T03:28:38.720Z,49.60
2019-04-19T03:33:59.545Z,49.80
2019-04-19T03:36:22.121Z,49.80
2019-04-19T03:38:48.433Z,49.90
2019-04-19T03:41:40.788Z,50.00
2019-04-19T03:44:25.365Z,50.50
2019-04-19T03:47:04.914Z,50.10
2019-04-19T03:54:31.514Z,50.10
2019-04-19T03:57:02.739Z,50.40
2019-04-19T03:59:16.216Z,50.60
2019-04-19T04:01:51.012Z,50.20
2019-04-19T04:04:22.266Z,50.00
2019-04-19T04:06:49.008Z,50.00
2019-04-19T04:09:39.981Z,50.10
2019-04-19T04:12:40.532Z,50.20
2019-04-19T04:15:38.369Z,50.40
2019-04-19T04:17:52.481Z,50.20
2019-04-19T04:20:22.185Z,49.80
2019-04-19T04:22:55.594Z,50.00
2019-04-19T04:25:28.300Z,50.00
2019-04-19T04:28:05.074Z,49.80
2019-04-19T04:30:31.664Z,49.70
2019-04-19T04:33:05.247Z,49.70
2019-04-19T04:35:41.395Z,49.80
2019-04-19T04:38:09.189Z,49.80
2019-04-19T04:40:29.708Z,49.90
2019-04-19T04:43:15.041Z,50.00
2019-04-19T04:46:01.843Z,50.10
2019-04-19T04:48:40.126Z,50.20
2019-04-19T04:51:26.022Z,50.40
2019-04-19T04:53:42.801Z,50.50
2019-04-19T04:56:17.181Z,50.70
2019-04-19T04:58:49.068Z,50.70
2019-04-19T05:01:29.040Z,51.40
2019-04-19T05:04:08.970Z,50.90
2019-04-19T05:06:34.907Z,50.90
2019-04-19T05:09:10.708Z,50.90
2019-04-19T05:11:37.698Z,51.00
2019-04-19T05:14:14.150Z,51.20
2019-04-19T05:16:53.701Z,51.20
2019-04-19T05:19:19.826Z,51.30
2019-04-19T05:21:46.295Z,51.30
2019-04-19T05:24:20.992Z,51.50
2019-04-19T05:27:04.746Z,51.50
2019-04-19T05:29:18.741Z,51.70
2019-04-19T05:31:41.223Z,51.90
2019-04-19T05:34:28.109Z,51.80
2019-04-19T05:36:55.228Z,52.00
2019-04-19T05:39:46.178Z,51.30
2019-04-19T05:42:33.082Z,51.30
2019-04-19T05:45:20.644Z,51.20
2019-04-19T05:47:31.045Z,51.40
2019-04-19T05:50:07.510Z,51.30
2019-04-19T05:52:39.435Z,51.40
2019-04-19T05:54:49.851Z,51.30
2019-04-19T05:57:35.960Z,51.30
2019-04-19T05:59:59.749Z,51.40
2019-04-19T06:02:28.502Z,51.40
2019-04-19T06:05:18.854Z,51.40
2019-04-19T06:07:41.782Z,51.50
2019-04-19T06:09:55.924Z,51.60
2019-04-19T06:12:29.942Z,51.60
2019-04-19T06:15:17.798Z,51.60
2019-04-19T06:18:09.816Z,51.60
2019-04-19T06:20:44.380Z,51.50
2019-04-19T06:23:12.995Z,51.40
2019-04-19T06:26:04.765Z,51.60
2019-04-19T06:28:25.990Z,51.50
2019-04-19T06:30:50.563Z,51.50
2019-04-19T06:33:21.561Z,51.40
2019-04-19T06:35:43.848Z,51.30
2019-04-19T06:38:07.434Z,51.70
2019-04-19T06:40:39.498Z,51.70
2019-04-19T06:43:13.872Z,52.00
2019-04-19T06:45:55.596Z,51.50
2019-04-19T06:48:16.225Z,51.20
2019-04-19T06:50:44.833Z,51.00
2019-04-19T06:53:12.688Z,50.90
2019-04-19T06:55:47.366Z,50.70
2019-04-19T06:58:20.433Z,50.70
2019-04-19T07:00:59.519Z,50.70
2019-04-19T07:03:16.114Z,50.70
2019-04-19T07:06:02.031Z,50.60
2019-04-19T07:08:59.683Z,50.50
2019-04-19T07:11:11.624Z,50.50
2019-04-19T07:13:32.773Z,50.40
2019-04-19T07:18:38.113Z,50.30
2019-04-19T07:21:16.288Z,50.40
2019-04-19T07:23:45.083Z,50.30
2019-04-19T07:26:20.342Z,50.30
2019-04-19T07:28:33.230Z,50.10
2019-04-19T07:31:03.510Z,50.00
2019-04-19T07:33:44.178Z,50.00
2019-04-19T07:36:27.025Z,49.80
2019-04-19T07:38:53.403Z,49.70
2019-04-19T07:41:21.500Z,49.50
2019-04-19T07:44:19.668Z,49.50
2019-04-19T07:47:06.623Z,49.30
2019-04-19T07:49:23.328Z,49.10
2019-04-19T07:52:02.634Z,48.90
2019-04-19T07:54:28.861Z,48.80
2019-04-19T07:57:22.648Z,48.70
2019-04-19T07:59:49.114Z,48.60
2019-04-19T08:04:58.750Z,48.30
2019-04-19T08:07:32.318Z,48.00
2019-04-19T08:09:58.544Z,48.20
2019-04-19T08:12:25.779Z,48.40
2019-04-19T08:27:21.670Z,46.50
2019-04-19T08:29:51.252Z,46.00
2019-04-19T08:32:13.687Z,45.80
2019-04-19T08:34:43.375Z,45.60
2019-04-19T08:37:23.903Z,45.10
2019-04-19T08:39:58.508Z,45.10
2019-04-19T08:42:35.719Z,44.40
2019-04-19T08:44:57.717Z,44.20
2019-04-19T08:47:42.390Z,44.10
2019-04-19T08:50:34.945Z,43.40
2019-04-19T08:53:24.311Z,42.40
2019-04-19T08:55:58.228Z,42.00
2019-04-19T08:58:23.864Z,41.20
2019-04-19T09:01:07.612Z,40.70
